createdAt,value
2023-05-14T00:01:29.271Z,9.23
2023-05-14T00:03:56.498Z,9.27
2023-05-14T00:06:23.278Z,9.18
2023-05-14T00:08:50.207Z,9.07
2023-05-14T00:11:17.186Z,9.26
2023-05-14T00:13:44.078Z,9.23
2023-05-14T00:16:11.925Z,9.15
2023-05-14T00:18:39.054Z,9.11
2023-05-14T00:21:06.085Z,9.18
2023-05-14T00:23:33.120Z,9.08
2023-05-14T00:25:59.974Z,9.22
2023-05-14T00:28:26.919Z,9.21
2023-05-14T00:30:53.963Z,9.10
2023-05-14T00:33:20.790Z,9.11
2023-05-14T00:35:47.995Z,9.15
2023-05-14T00:38:19.211Z,9.11
2023-05-14T00:40:51.448Z,9.04
2023-05-14T00:43:19.740Z,9.11
2023-05-14T00:45:47.810Z,8.97
2023-05-14T00:48:14.759Z,9.03
2023-05-14T00:50:42.318Z,8.96
2023-05-14T00:53:10.745Z,8.93
2023-05-14T00:55:42.376Z,8.95
2023-05-14T00:58:13.720Z,8.92
2023-05-14T01:00:41.809Z,8.96
2023-05-14T01:03:09.738Z,9.05
2023-05-14T01:05:47.393Z,9.05
2023-05-14T01:08:43.304Z,9.14
2023-05-14T01:11:20.058Z,8.56
2023-05-14T01:14:17.858Z,9.19
2023-05-14T01:16:46.314Z,9.14
2023-05-14T01:19:27.574Z,9.27
2023-05-14T01:21:54.553Z,9.29
2023-05-14T01:24:21.329Z,9.25
2023-05-14T01:26:48.275Z,9.28
2023-05-14T01:29:28.556Z,9.29
2023-05-14T01:31:58.911Z,9.24
2023-05-14T01:34:28.454Z,9.19
2023-05-14T01:36:57.441Z,9.21
2023-05-14T01:39:26.859Z,9.19
2023-05-14T01:41:55.279Z,9.25
2023-05-14T01:44:22.297Z,9.29
2023-05-14T01:46:49.218Z,9.23
2023-05-14T01:49:18.160Z,9.31
2023-05-14T01:51:45.879Z,9.35
2023-05-14T01:54:12.788Z,9.27
2023-05-14T01:56:39.796Z,9.45
2023-05-14T01:59:07.056Z,9.40
2023-05-14T02:01:34.275Z,9.42
2023-05-14T02:04:01.289Z,9.40
2023-05-14T02:06:28.277Z,9.33
2023-05-14T02:08:56.131Z,9.35
2023-05-14T02:11:23.146Z,9.30
2023-05-14T02:13:50.113Z,9.46
2023-05-14T02:16:17.266Z,9.49
2023-05-14T02:18:44.119Z,9.54
2023-05-14T02:21:11.056Z,9.56
2023-05-14T02:23:41.441Z,9.58
2023-05-14T02:26:10.963Z,9.60
2023-05-14T02:28:38.200Z,9.53
2023-05-14T02:31:05.140Z,9.51
2023-05-14T02:33:32.274Z,9.43
2023-05-14T02:35:59.190Z,9.45
2023-05-14T02:38:26.800Z,9.36
2023-05-14T02:40:56.350Z,9.38
2023-05-14T02:43:23.554Z,9.35
2023-05-14T02:45:50.412Z,9.26
2023-05-14T02:48:17.544Z,9.32
2023-05-14T02:50:44.394Z,9.34
2023-05-14T02:53:11.701Z,9.39
2023-05-14T02:55:38.619Z,9.43
2023-05-14T02:58:05.733Z,9.45
2023-05-14T03:00:32.786Z,9.45
2023-05-14T03:03:00.231Z,9.40
2023-05-14T03:05:27.625Z,9.53
2023-05-14T03:07:55.065Z,9.58
2023-05-14T03:10:22.032Z,9.64
2023-05-14T03:12:49.602Z,9.71
2023-05-14T03:15:16.376Z,9.76
2023-05-14T03:17:43.617Z,9.76
2023-05-14T03:20:11.405Z,9.75
2023-05-14T03:22:38.255Z,9.78
2023-05-14T03:25:05.693Z,9.72
2023-05-14T03:27:33.868Z,9.73
2023-05-14T03:30:01.003Z,9.82
2023-05-14T03:32:27.907Z,9.97
2023-05-14T03:34:55.035Z,10.00
2023-05-14T03:37:22.113Z,10.08
2023-05-14T03:39:48.980Z,10.06
2023-05-14T03:42:15.944Z,10.09
2023-05-14T03:44:42.860Z,10.08
2023-05-14T03:47:09.677Z,10.14
2023-05-14T03:49:37.022Z,10.13
2023-05-14T03:52:04.621Z,10.15
2023-05-14T03:54:31.848Z,10.31
2023-05-14T03:56:59.848Z,10.39
2023-05-14T03:59:26.717Z,10.50
2023-05-14T04:01:54.107Z,10.68
2023-05-14T04:04:21.306Z,10.74
2023-05-14T04:06:48.227Z,10.86
2023-05-14T04:09:15.045Z,10.99
2023-05-14T04:11:41.953Z,11.15
2023-05-14T04:14:09.243Z,11.30
2023-05-14T04:16:36.064Z,11.40
2023-05-14T04:19:06.722Z,11.57
2023-05-14T04:21:33.719Z,11.68
2023-05-14T04:24:00.631Z,11.86
2023-05-14T04:26:27.511Z,12.00
2023-05-14T04:28:54.500Z,12.09
2023-05-14T04:31:21.648Z,12.26
2023-05-14T04:33:48.671Z,12.39
2023-05-14T04:36:16.135Z,12.53
2023-05-14T04:38:43.103Z,12.60
2023-05-14T04:41:10.198Z,12.70
2023-05-14T04:43:37.010Z,12.77
2023-05-14T04:46:04.038Z,12.71
2023-05-14T04:48:31.108Z,12.66
2023-05-14T04:50:58.251Z,12.77
2023-05-14T04:53:25.226Z,12.72
2023-05-14T04:55:52.203Z,12.84
2023-05-14T04:58:19.369Z,12.92
2023-05-14T05:00:46.428Z,12.97
2023-05-14T05:03:13.716Z,13.10
2023-05-14T05:05:40.888Z,13.20
2023-05-14T05:08:07.789Z,13.49
2023-05-14T05:10:34.840Z,13.64
2023-05-14T05:13:03.138Z,13.70
2023-05-14T05:15:30.031Z,13.84
2023-05-14T05:17:57.215Z,14.00
2023-05-14T05:20:25.285Z,14.12
2023-05-14T05:22:52.261Z,14.27
2023-05-14T05:25:19.173Z,14.48
2023-05-14T05:27:46.184Z,14.64
2023-05-14T05:30:13.443Z,14.77
2023-05-14T05:32:40.742Z,14.94
2023-05-14T05:35:08.090Z,15.00
2023-05-14T05:37:35.030Z,15.21
2023-05-14T05:40:01.993Z,15.26
2023-05-14T05:42:28.831Z,15.37
2023-05-14T05:44:56.310Z,15.49
2023-05-14T05:47:23.292Z,15.52
2023-05-14T05:49:50.456Z,15.62
2023-05-14T05:52:17.433Z,15.66
2023-05-14T05:54:44.500Z,15.96
2023-05-14T05:57:11.421Z,16.33
2023-05-14T05:59:38.573Z,16.43
2023-05-14T06:02:05.938Z,16.40
2023-05-14T06:04:32.985Z,16.54
2023-05-14T06:06:59.904Z,16.66
2023-05-14T06:09:26.948Z,16.77
2023-05-14T06:11:53.691Z,16.84
2023-05-14T06:14:20.734Z,16.88
2023-05-14T06:16:47.634Z,17.04
2023-05-14T06:19:15.258Z,17.02
2023-05-14T06:21:42.216Z,17.13
2023-05-14T06:24:09.408Z,17.20
2023-05-14T06:26:36.524Z,17.28
2023-05-14T06:29:03.300Z,17.50
2023-05-14T06:31:30.428Z,17.60
2023-05-14T06:33:57.452Z,17.52
2023-05-14T06:36:24.468Z,17.69
2023-05-14T06:38:51.299Z,17.92
2023-05-14T06:41:18.364Z,18.03
2023-05-14T06:43:45.205Z,18.19
2023-05-14T06:46:12.387Z,18.38
2023-05-14T06:48:39.239Z,18.51
2023-05-14T06:51:06.543Z,18.52
2023-05-14T06:53:33.643Z,18.57
2023-05-14T06:56:00.785Z,18.77
2023-05-14T06:58:27.694Z,18.96
2023-05-14T07:00:54.757Z,19.07
2023-05-14T07:03:22.338Z,19.15
2023-05-14T07:05:49.497Z,19.24
2023-05-14T07:08:16.421Z,19.30
2023-05-14T07:10:43.249Z,19.31
2023-05-14T07:13:10.238Z,19.07
2023-05-14T07:15:37.219Z,19.11
2023-05-14T07:18:04.376Z,19.28
2023-05-14T07:20:31.470Z,19.35
2023-05-14T07:22:58.347Z,19.04
2023-05-14T07:25:25.455Z,19.20
2023-05-14T07:27:52.465Z,19.47
2023-05-14T07:30:19.920Z,19.57
2023-05-14T07:32:46.867Z,19.56
2023-05-14T07:35:13.931Z,19.74
2023-05-14T07:37:41.029Z,19.66
2023-05-14T07:40:08.509Z,19.76
2023-05-14T07:42:37.280Z,19.83
2023-05-14T07:45:05.789Z,19.83
2023-05-14T07:47:33.020Z,19.69
2023-05-14T07:50:00.525Z,19.57
2023-05-14T07:52:27.539Z,19.52
2023-05-14T07:54:55.261Z,19.54
2023-05-14T07:57:22.340Z,19.12
2023-05-14T07:59:49.883Z,19.14
2023-05-14T08:02:17.746Z,19.15
2023-05-14T08:04:45.191Z,19.33
2023-05-14T08:07:12.133Z,19.41
2023-05-14T08:09:39.456Z,19.33
2023-05-14T08:12:06.857Z,19.68
2023-05-14T08:14:33.788Z,19.87
2023-05-14T08:17:00.813Z,19.88
2023-05-14T08:19:28.074Z,19.89
2023-05-14T08:21:54.950Z,19.71
2023-05-14T08:24:21.823Z,19.62
2023-05-14T08:26:48.954Z,19.81
2023-05-14T08:29:16.784Z,19.67
2023-05-14T08:31:44.070Z,19.54
2023-05-14T08:34:11.015Z,19.69
2023-05-14T08:36:39.078Z,19.72
2023-05-14T08:39:07.761Z,19.71
2023-05-14T08:41:35.784Z,19.93
2023-05-14T08:44:05.833Z,19.94
2023-05-14T08:46:33.987Z,20.17
2023-05-14T08:49:09.137Z,20.36
2023-05-14T08:51:36.547Z,20.26
2023-05-14T08:54:04.173Z,20.19
2023-05-14T08:56:33.471Z,20.31
2023-05-14T08:59:01.072Z,20.21
2023-05-14T09:01:29.053Z,20.01
2023-05-14T09:04:21.223Z,20.05
2023-05-14T09:06:53.750Z,20.02
2023-05-14T09:09:47.274Z,19.88
2023-05-14T09:12:14.884Z,19.78
2023-05-14T09:14:41.979Z,19.66
2023-05-14T09:17:09.265Z,19.63
2023-05-14T09:19:36.180Z,19.83
2023-05-14T09:22:09.298Z,19.89
2023-05-14T09:24:36.385Z,20.04
2023-05-14T09:27:04.333Z,19.79
2023-05-14T09:29:31.835Z,19.84
2023-05-14T09:32:00.702Z,20.01
2023-05-14T09:34:29.499Z,20.21
2023-05-14T09:37:01.396Z,20.31
2023-05-14T09:39:29.341Z,20.56
2023-05-14T09:41:57.026Z,20.62
2023-05-14T09:44:24.912Z,20.76
2023-05-14T09:46:53.066Z,20.46
2023-05-14T09:49:20.452Z,20.62
2023-05-14T09:51:49.608Z,20.47
2023-05-14T09:54:16.708Z,20.67
2023-05-14T09:56:44.273Z,20.74
2023-05-14T09:59:11.568Z,20.78
2023-05-14T10:01:39.910Z,20.79
2023-05-14T10:04:07.853Z,20.70
2023-05-14T10:06:37.937Z,20.60
2023-05-14T10:09:10.268Z,20.58
2023-05-14T10:11:39.284Z,20.49
2023-05-14T10:14:20.841Z,20.48
2023-05-14T10:16:50.997Z,20.29
2023-05-14T10:19:21.135Z,20.34
2023-05-14T10:22:04.486Z,20.15
2023-05-14T10:24:32.471Z,20.12
2023-05-14T10:26:59.569Z,20.29
2023-05-14T10:29:37.802Z,20.31
2023-05-14T10:32:07.146Z,20.30
2023-05-14T10:34:41.297Z,20.29
2023-05-14T10:37:10.417Z,20.40
2023-05-14T10:40:08.825Z,20.26
2023-05-14T10:42:43.595Z,20.22
2023-05-14T10:45:27.030Z,19.98
2023-05-14T10:47:54.140Z,20.00
2023-05-14T10:51:08.585Z,20.17
2023-05-14T10:54:28.979Z,20.04
2023-05-14T10:56:59.489Z,19.95
2023-05-14T10:59:29.435Z,20.00
2023-05-14T11:01:59.486Z,20.14
2023-05-14T11:04:31.203Z,20.23
2023-05-14T11:06:59.515Z,20.40
2023-05-14T11:09:27.009Z,20.68
2023-05-14T11:11:54.616Z,20.65
2023-05-14T11:14:22.859Z,20.75
2023-05-14T11:16:50.477Z,20.97
2023-05-14T11:19:21.967Z,21.25
2023-05-14T11:21:48.717Z,21.34
2023-05-14T11:24:15.878Z,21.33
2023-05-14T11:26:42.876Z,21.38
2023-05-14T11:29:10.762Z,21.35
2023-05-14T11:31:37.872Z,21.07
2023-05-14T11:34:07.422Z,20.92
2023-05-14T11:36:36.810Z,21.22
2023-05-14T11:39:03.732Z,20.95
2023-05-14T11:41:31.446Z,21.09
2023-05-14T11:43:58.899Z,21.14
2023-05-14T11:46:26.283Z,21.43
2023-05-14T11:48:53.250Z,21.50
2023-05-14T11:51:21.424Z,21.29
2023-05-14T11:53:48.706Z,21.21
2023-05-14T11:56:16.048Z,21.35
2023-05-14T11:58:48.379Z,21.43
2023-05-14T12:01:15.904Z,21.29
2023-05-14T12:03:43.351Z,21.33
2023-05-14T12:06:10.277Z,21.38
2023-05-14T12:08:37.739Z,21.42
2023-05-14T12:11:04.643Z,21.47
2023-05-14T12:13:32.671Z,21.52
2023-05-14T12:16:02.470Z,21.72
2023-05-14T12:18:31.490Z,21.98
2023-05-14T12:21:08.538Z,22.06
2023-05-14T12:23:35.634Z,22.29
2023-05-14T12:26:06.380Z,22.06
2023-05-14T12:28:36.917Z,22.04
2023-05-14T12:31:05.056Z,21.79
2023-05-14T12:33:32.099Z,21.81
2023-05-14T12:36:19.891Z,21.76
2023-05-14T12:38:47.975Z,21.86
2023-05-14T12:41:15.047Z,21.92
2023-05-14T12:43:44.357Z,22.03
2023-05-14T12:46:11.431Z,22.20
2023-05-14T12:48:38.408Z,22.10
2023-05-14T12:51:05.273Z,22.05
2023-05-14T12:53:32.340Z,22.11
2023-05-14T12:55:59.565Z,21.96
2023-05-14T12:58:26.727Z,22.24
2023-05-14T13:00:53.840Z,22.26
2023-05-14T13:03:21.263Z,22.32
2023-05-14T13:05:48.390Z,22.05
2023-05-14T13:08:17.914Z,22.17
2023-05-14T13:10:45.293Z,22.36
2023-05-14T13:13:12.480Z,22.23
2023-05-14T13:15:39.430Z,22.05
2023-05-14T13:18:06.864Z,21.91
2023-05-14T13:20:34.466Z,22.35
2023-05-14T13:23:01.428Z,22.37
2023-05-14T13:25:28.578Z,22.24
2023-05-14T13:27:56.080Z,22.35
2023-05-14T13:30:22.964Z,22.48
2023-05-14T13:32:50.149Z,22.56
2023-05-14T13:35:17.530Z,22.26
2023-05-14T13:37:44.417Z,22.42
2023-05-14T13:40:11.695Z,22.45
2023-05-14T13:42:39.925Z,22.52
2023-05-14T13:45:07.459Z,22.50
2023-05-14T13:47:34.583Z,22.38
2023-05-14T13:50:01.398Z,22.38
2023-05-14T13:52:28.593Z,22.37
2023-05-14T13:54:56.491Z,22.42
2023-05-14T13:57:23.542Z,22.40
2023-05-14T13:59:50.778Z,22.20
2023-05-14T14:02:17.997Z,22.16
2023-05-14T14:04:44.930Z,22.36
2023-05-14T14:07:11.866Z,22.32
2023-05-14T14:09:38.884Z,22.39
2023-05-14T14:12:06.804Z,22.09
2023-05-14T14:14:33.738Z,22.14
2023-05-14T14:17:01.076Z,21.95
2023-05-14T14:19:27.911Z,21.96
2023-05-14T14:21:54.821Z,21.88
2023-05-14T14:24:21.889Z,21.77
2023-05-14T14:26:48.712Z,21.87
2023-05-14T14:29:15.619Z,22.14
2023-05-14T14:31:43.827Z,22.15
2023-05-14T14:34:10.972Z,22.13
2023-05-14T14:36:38.194Z,22.21
2023-05-14T14:39:05.269Z,22.10
2023-05-14T14:41:32.244Z,21.77
2023-05-14T14:43:59.234Z,21.85
2023-05-14T14:46:26.550Z,21.92
2023-05-14T14:48:53.514Z,21.82
2023-05-14T14:51:20.570Z,21.67
2023-05-14T14:53:47.843Z,21.92
2023-05-14T14:56:14.722Z,21.73
2023-05-14T14:58:41.718Z,21.57
2023-05-14T15:01:08.729Z,21.67
2023-05-14T15:03:36.467Z,21.69
2023-05-14T15:06:03.384Z,21.68
2023-05-14T15:08:30.280Z,21.64
2023-05-14T15:10:57.876Z,21.45
2023-05-14T15:13:25.935Z,21.16
2023-05-14T15:15:53.154Z,21.08
2023-05-14T15:18:20.645Z,20.97
2023-05-14T15:20:47.736Z,21.06
2023-05-14T15:23:14.765Z,21.06
2023-05-14T15:25:41.746Z,20.87
2023-05-14T15:28:08.803Z,20.69
2023-05-14T15:30:35.903Z,20.73
2023-05-14T15:33:02.952Z,20.62
2023-05-14T15:35:30.020Z,20.50
2023-05-14T15:37:59.918Z,20.41
2023-05-14T15:40:29.681Z,20.51
2023-05-14T15:42:56.708Z,20.50
2023-05-14T15:45:23.674Z,20.50
2023-05-14T15:47:51.196Z,20.55
2023-05-14T15:50:17.970Z,20.31
2023-05-14T15:52:44.928Z,20.27
2023-05-14T15:55:12.050Z,20.25
2023-05-14T15:57:39.310Z,20.04
2023-05-14T16:00:12.805Z,20.07
2023-05-14T16:06:23.133Z,19.79
2023-05-14T16:08:50.115Z,19.83
2023-05-14T16:11:17.272Z,19.78
2023-05-14T16:16:30.653Z,19.62
2023-05-14T16:18:57.847Z,19.59
2023-05-14T16:21:24.699Z,19.45
2023-05-14T16:24:03.755Z,19.40
2023-05-14T16:27:21.185Z,19.31
2023-05-14T16:29:48.667Z,19.32
2023-05-14T16:32:16.009Z,19.34
2023-05-14T16:34:49.786Z,19.17
2023-05-14T16:37:17.663Z,19.06
2023-05-14T16:39:44.817Z,19.11
2023-05-14T16:42:11.925Z,19.05
2023-05-14T16:44:39.162Z,19.00
2023-05-14T16:47:06.586Z,18.75
2023-05-14T16:49:33.863Z,18.75
2023-05-14T16:52:00.828Z,18.70
2023-05-14T16:54:27.872Z,18.65
2023-05-14T16:56:54.678Z,18.63
2023-05-14T16:59:21.731Z,18.60
2023-05-14T17:01:48.674Z,18.70
2023-05-14T17:04:16.158Z,18.75
2023-05-14T17:06:43.315Z,18.54
2023-05-14T17:09:10.383Z,18.52
2023-05-14T17:11:43.560Z,18.49
2023-05-14T17:15:05.687Z,18.48
2023-05-14T17:17:33.912Z,18.46
2023-05-14T17:20:01.043Z,18.45
2023-05-14T17:22:27.991Z,18.37
2023-05-14T17:24:54.977Z,18.21
2023-05-14T17:27:22.060Z,18.15
2023-05-14T17:29:51.198Z,18.21
2023-05-14T17:32:18.569Z,18.20
2023-05-14T17:34:45.601Z,18.15
2023-05-14T17:37:12.878Z,18.13
2023-05-14T17:39:39.900Z,18.16
2023-05-14T17:42:07.028Z,18.10
2023-05-14T17:44:34.225Z,17.95
2023-05-14T17:47:01.522Z,17.88
2023-05-14T17:49:28.780Z,17.94
2023-05-14T17:52:56.808Z,17.86
2023-05-14T17:57:02.240Z,17.79
2023-05-14T17:59:29.867Z,17.75
2023-05-14T18:01:56.868Z,17.82
2023-05-14T18:04:23.710Z,17.77
2023-05-14T18:06:50.930Z,17.80
2023-05-14T18:09:17.937Z,17.84
2023-05-14T18:14:51.882Z,17.75
2023-05-14T18:17:18.952Z,17.68
2023-05-14T18:19:46.102Z,17.61
2023-05-14T18:22:13.487Z,17.70
2023-05-14T18:24:40.670Z,17.65
2023-05-14T18:27:08.323Z,17.56
2023-05-14T18:29:35.241Z,17.57
2023-05-14T18:32:02.151Z,17.54
2023-05-14T18:38:54.751Z,17.51
2023-05-14T18:41:21.768Z,17.34
2023-05-14T18:43:48.649Z,17.38
2023-05-14T18:46:15.807Z,17.37
2023-05-14T18:48:42.912Z,17.39
2023-05-14T18:51:11.375Z,17.29
2023-05-14T18:53:38.581Z,17.38
2023-05-14T18:56:05.572Z,17.42
2023-05-14T18:58:32.732Z,17.36
2023-05-14T19:00:59.757Z,17.35
2023-05-14T19:03:26.986Z,17.33
2023-05-14T19:05:54.406Z,17.35
2023-05-14T19:08:21.353Z,17.34
2023-05-14T19:10:48.695Z,17.35
2023-05-14T19:13:19.466Z,17.24
2023-05-14T19:16:09.356Z,17.21
2023-05-14T19:18:36.346Z,17.15
2023-05-14T19:21:12.401Z,16.96
2023-05-14T19:23:39.462Z,17.01
2023-05-14T19:26:07.335Z,17.07
2023-05-14T19:28:34.338Z,17.07
2023-05-14T19:31:01.305Z,16.97
2023-05-14T19:33:31.880Z,16.93
2023-05-14T19:35:59.791Z,16.91
2023-05-14T19:38:26.717Z,16.87
2023-05-14T19:40:59.979Z,16.84
2023-05-14T19:43:33.877Z,16.84
2023-05-14T19:46:01.632Z,16.86
2023-05-14T19:48:33.583Z,16.80
2023-05-14T19:51:32.534Z,16.81
2023-05-14T19:54:04.436Z,16.74
2023-05-14T19:56:34.641Z,16.69
2023-05-14T19:59:02.593Z,16.64
2023-05-14T20:01:29.672Z,16.59
2023-05-14T20:03:56.711Z,16.54
2023-05-14T20:06:23.592Z,16.37
2023-05-14T20:08:51.562Z,16.41
2023-05-14T20:12:36.722Z,16.33
2023-05-14T20:14:22.420Z,16.30
2023-05-14T20:16:52.533Z,16.36
2023-05-14T20:19:21.493Z,16.41
2023-05-14T20:21:48.766Z,16.40
2023-05-14T20:24:15.646Z,16.40
2023-05-14T20:27:08.587Z,16.36
2023-05-14T20:29:51.388Z,16.29
2023-05-14T20:36:05.238Z,16.23
2023-05-14T20:38:34.448Z,16.20
2023-05-14T20:41:10.913Z,16.10
2023-05-14T20:43:37.904Z,16.06
2023-05-14T20:46:07.294Z,15.96
2023-05-14T20:48:34.422Z,15.91
2023-05-14T20:51:01.929Z,15.86
2023-05-14T20:53:28.882Z,15.94
2023-05-14T20:55:56.269Z,15.84
2023-05-14T20:58:23.214Z,15.81
2023-05-14T21:00:50.344Z,15.84
2023-05-14T21:03:17.576Z,15.82
2023-05-14T21:05:47.370Z,15.82
2023-05-14T21:08:14.165Z,15.92
2023-05-14T21:10:41.094Z,15.88
2023-05-14T21:13:08.281Z,15.84
2023-05-14T21:15:35.248Z,15.75
2023-05-14T21:18:02.260Z,15.72
2023-05-14T21:20:29.141Z,15.74
2023-05-14T21:22:56.228Z,15.79
2023-05-14T21:25:23.334Z,15.81
2023-05-14T21:27:50.730Z,15.82
2023-05-14T21:30:17.700Z,15.80
2023-05-14T21:32:44.728Z,15.80
2023-05-14T21:35:11.756Z,15.72
2023-05-14T21:37:39.976Z,15.72
2023-05-14T21:40:12.337Z,15.72
2023-05-14T21:42:42.337Z,15.67
2023-05-14T21:45:09.607Z,15.67
2023-05-14T21:47:37.388Z,15.69
2023-05-14T21:50:05.219Z,15.72
2023-05-14T21:52:32.230Z,15.76
2023-05-14T21:54:59.111Z,15.73
2023-05-14T21:57:28.384Z,15.64
2023-05-14T21:59:55.824Z,15.67
2023-05-14T22:02:23.082Z,15.64
2023-05-14T22:04:50.479Z,15.63
2023-05-14T22:07:17.675Z,15.61
2023-05-14T22:09:44.663Z,15.56
2023-05-14T22:12:11.628Z,15.55
2023-05-14T22:14:38.555Z,15.42
2023-05-14T22:17:05.658Z,15.50
2023-05-14T22:19:33.061Z,15.52
2023-05-14T22:22:00.361Z,15.48
2023-05-14T22:24:27.372Z,15.56
2023-05-14T22:26:54.716Z,15.48
2023-05-14T22:29:21.601Z,15.48
2023-05-14T22:31:48.657Z,15.51
2023-05-14T22:34:16.122Z,15.55
2023-05-14T22:36:42.946Z,15.51
2023-05-14T22:39:11.464Z,15.56
2023-05-14T22:41:40.557Z,15.60
2023-05-14T22:44:07.525Z,15.64
2023-05-14T22:46:34.762Z,15.52
2023-05-14T22:49:01.662Z,15.62
2023-05-14T22:51:28.648Z,15.62
2023-05-14T22:53:55.679Z,15.66
2023-05-14T22:56:22.682Z,15.60
2023-05-14T22:58:49.650Z,15.51
2023-05-14T23:01:16.613Z,15.50
2023-05-14T23:03:43.461Z,15.48
2023-05-14T23:06:13.707Z,15.45
2023-05-14T23:08:41.222Z,15.42
2023-05-14T23:11:08.104Z,15.41
2023-05-14T23:13:35.584Z,15.43
2023-05-14T23:16:02.732Z,15.40
2023-05-14T23:18:30.920Z,15.50
2023-05-14T23:20:58.178Z,15.45
2023-05-14T23:23:25.334Z,15.51
2023-05-14T23:25:52.427Z,15.54
2023-05-14T23:28:19.748Z,15.51
2023-05-14T23:30:46.556Z,15.46
2023-05-14T23:33:13.594Z,15.58
2023-05-14T23:35:40.839Z,15.58
2023-05-14T23:38:08.265Z,15.55
2023-05-14T23:40:35.557Z,15.58
2023-05-14T23:43:02.542Z,15.62
2023-05-14T23:45:30.382Z,15.47
2023-05-14T23:47:58.552Z,15.51
2023-05-14T23:50:25.752Z,15.64
2023-05-14T23:52:53.876Z,15.61
2023-05-14T23:55:20.874Z,15.65
2023-05-14T23:57:49.062Z,15.60
